Time;durP1;ratioP1;P1;durP2;ratioP2;P2;SDS_P1;SDS_P2;PMS_P1;PMS_P2;Temp;Humidity;BMP_temperature;BMP_pressure;BME280_temperature;BME280_humidity;BME280_pressure;Samples;Min_cycle;Max_cycle;Signal;HPM_P1;HPM_P2
2022/06/27 00:01:48;;;;;;;2.58;1.10;;;17.90;99.90;;;;;;5080894;28;20377;-90
2022/06/27 00:04:35;;;;;;;4.15;1.33;;;17.70;99.90;;;;;;5065155;28;20052;-89
2022/06/27 00:07:25;;;;;;;1.27;0.82;;;17.70;99.90;;;;;;5071761;28;20056;-93
2022/06/27 00:10:12;;;;;;;3.28;1.20;;;17.50;99.90;;;;;;5074154;28;20052;-90
2022/06/27 00:12:59;;;;;;;4.57;1.20;;;17.30;99.90;;;;;;5063061;28;20143;-92
2022/06/27 00:15:47;;;;;;;5.75;1.50;;;17.20;99.90;;;;;;5069794;28;20056;-92
2022/06/27 00:18:34;;;;;;;3.53;1.40;;;17.00;99.90;;;;;;5059331;28;20045;-93
2022/06/27 00:21:23;;;;;;;5.85;1.75;;;16.80;99.90;;;;;;5072630;28;20472;-91
2022/06/27 00:24:11;;;;;;;4.45;1.67;;;16.70;99.90;;;;;;5072465;28;20117;-92
2022/06/27 00:26:58;;;;;;;7.63;2.30;;;16.70;99.90;;;;;;5074227;28;20461;-88
2022/06/27 00:29:46;;;;;;;3.25;1.80;;;16.60;99.90;;;;;;5072078;28;20072;-88
2022/06/27 00:32:33;;;;;;;8.90;2.30;;;16.50;99.90;;;;;;5068291;28;20496;-92
2022/06/27 00:35:21;;;;;;;7.65;1.80;;;16.40;99.90;;;;;;5075815;28;20045;-93
2022/06/27 00:38:08;;;;;;;4.85;1.70;;;16.40;99.90;;;;;;5067213;28;20429;-92
2022/06/27 00:40:58;;;;;;;4.50;1.48;;;16.40;99.90;;;;;;5072883;28;20161;-91
2022/06/27 00:43:45;;;;;;;13.13;2.17;;;16.30;99.90;;;;;;5073989;28;20095;-90
2022/06/27 00:46:33;;;;;;;9.40;2.30;;;16.40;99.90;;;;;;5069354;28;20060;-88
2022/06/27 00:49:20;;;;;;;16.42;2.67;;;16.50;99.90;;;;;;5070882;28;20454;-89
2022/06/27 00:52:12;;;;;;;6.75;2.15;;;16.40;99.90;;;;;;5065637;28;20578;-90
2022/06/27 00:54:59;;;;;;;5.63;2.38;;;16.30;99.90;;;;;;5067775;28;20342;-90
2022/06/27 00:57:47;;;;;;;7.65;2.53;;;16.20;99.90;;;;;;5066717;28;20129;-88
2022/06/27 01:00:37;;;;;;;5.15;2.25;;;16.20;99.90;;;;;;5068574;28;20441;-89
2022/06/27 01:03:24;;;;;;;6.97;2.60;;;16.10;99.90;;;;;;5066033;28;20426;-92
2022/06/27 01:06:17;;;;;;;6.75;3.03;;;16.10;99.90;;;;;;5070433;28;20492;-91
2022/06/27 01:09:07;;;;;;;9.48;2.70;;;16.20;99.90;;;;;;5056775;28;20052;-89
2022/06/27 01:11:54;;;;;;;6.45;2.03;;;16.10;99.90;;;;;;5070205;28;20416;-90
2022/06/27 01:14:43;;;;;;;3.95;2.25;;;16.10;99.90;;;;;;5068805;28;20063;-89
2022/06/27 01:17:30;;;;;;;6.68;2.25;;;16.10;99.90;;;;;;5074750;28;20040;-91
2022/06/27 01:20:20;;;;;;;4.75;2.45;;;16.10;99.90;;;;;;5067783;28;20067;-90
2022/06/27 01:23:08;;;;;;;4.50;2.33;;;16.10;99.90;;;;;;5055401;28;20037;-89
2022/06/27 01:25:56;;;;;;;4.72;2.60;;;16.00;99.90;;;;;;5070472;28;20044;-90
2022/06/27 01:28:46;;;;;;;5.47;2.55;;;15.90;99.90;;;;;;5067487;28;20438;-90
2022/06/27 01:31:35;;;;;;;3.60;2.70;;;15.90;99.90;;;;;;5067041;28;20488;-88
2022/06/27 01:34:24;;;;;;;4.22;2.40;;;15.80;99.90;;;;;;5072814;28;20036;-88
2022/06/27 01:37:11;;;;;;;3.08;2.20;;;15.80;99.90;;;;;;5072478;28;20041;-89
2022/06/27 01:40:00;;;;;;;6.30;2.65;;;15.70;99.90;;;;;;5056854;28;20133;-88
2022/06/27 01:42:57;;;;;;;4.38;2.47;;;15.70;99.90;;;;;;5078877;28;20052;-89
2022/06/27 01:45:44;;;;;;;4.95;2.60;;;15.60;99.90;;;;;;5066915;28;20066;-88
2022/06/27 01:48:35;;;;;;;4.05;2.70;;;15.60;99.90;;;;;;5070877;28;20096;-89
2022/06/27 01:51:22;;;;;;;6.65;3.00;;;15.50;99.90;;;;;;5064553;28;20426;-90
2022/06/27 01:54:14;;;;;;;7.30;3.33;;;15.60;99.90;;;;;;5057000;28;20127;-88
2022/06/27 01:57:05;;;;;;;5.47;3.53;;;15.60;99.90;;;;;;5063150;28;20040;-89
2022/06/27 01:59:52;;;;;;;6.88;3.40;;;15.60;99.90;;;;;;5057403;28;20314;-88
2022/06/27 02:02:39;;;;;;;6.85;2.90;;;15.60;99.90;;;;;;5060180;28;20079;-89
2022/06/27 02:05:26;;;;;;;7.63;3.45;;;15.60;99.90;;;;;;5082383;28;20067;-89
2022/06/27 02:08:18;;;;;;;9.80;3.17;;;15.60;99.90;;;;;;5084353;28;20112;-89
2022/06/27 02:11:05;;;;;;;9.10;3.50;;;15.50;99.90;;;;;;5083721;28;20058;-89
2022/06/27 02:13:55;;;;;;;10.52;3.58;;;15.50;99.90;;;;;;5095013;28;20404;-89
2022/06/27 02:16:48;;;;;;;5.43;3.30;;;15.40;99.90;;;;;;5089433;28;20044;-89
2022/06/27 02:19:35;;;;;;;5.72;3.05;;;15.40;99.90;;;;;;5072040;28;20224;-90
2022/06/27 02:22:25;;;;;;;8.07;3.75;;;15.30;99.90;;;;;;5060624;28;20125;-90
2022/06/27 02:25:14;;;;;;;8.60;4.38;;;15.30;99.90;;;;;;5078693;28;20110;-91
2022/06/27 02:28:02;;;;;;;9.45;4.03;;;15.50;99.90;;;;;;5076345;28;20044;-89
2022/06/27 02:30:49;;;;;;;5.07;4.13;;;15.60;99.90;;;;;;5076846;28;20076;-89
2022/06/27 02:33:43;;;;;;;6.75;4.72;;;15.50;99.90;;;;;;5069157;28;20110;-87
2022/06/27 02:36:41;;;;;;;9.70;5.20;;;15.50;99.90;;;;;;5080186;28;20098;-87
2022/06/27 02:39:32;;;;;;;12.15;5.90;;;15.60;99.90;;;;;;5074334;28;20049;-88
2022/06/27 02:42:21;;;;;;;10.85;5.78;;;15.70;99.90;;;;;;5085032;28;20048;-87
2022/06/27 02:45:08;;;;;;;8.63;4.82;;;15.60;99.90;;;;;;5076631;28;20045;-88
2022/06/27 02:47:58;;;;;;;13.95;5.25;;;15.60;99.90;;;;;;5077204;28;20048;-87
2022/06/27 02:50:52;;;;;;;14.93;5.75;;;15.60;99.90;;;;;;5071110;28;20056;-89
2022/06/27 02:54:05;;;;;;;8.82;5.20;;;15.50;99.90;;;;;;5075912;28;20055;-89
2022/06/27 02:57:04;;;;;;;11.52;6.03;;;15.60;99.90;;;;;;5079464;28;20158;-88
2022/06/27 02:59:55;;;;;;;14.00;6.53;;;15.60;99.90;;;;;;5081341;28;20040;-89
2022/06/27 03:02:45;;;;;;;11.30;7.13;;;15.50;99.90;;;;;;5081822;28;20098;-89
2022/06/27 03:06:07;;;;;;;10.30;6.95;;;15.50;99.90;;;;;;5078213;28;20049;-88
2022/06/27 03:08:54;;;;;;;9.95;6.90;;;15.60;99.90;;;;;;5072409;28;20553;-89
2022/06/27 03:11:42;;;;;;;11.77;6.80;;;15.50;99.90;;;;;;5090256;28;20087;-89
2022/06/27 03:14:29;;;;;;;12.05;7.25;;;15.50;99.90;;;;;;5079409;28;20029;-88
2022/06/27 03:17:19;;;;;;;11.18;6.70;;;15.40;99.90;;;;;;5094361;28;20041;-88
2022/06/27 03:20:09;;;;;;;11.48;6.35;;;15.40;99.90;;;;;;5072156;28;20040;-89
2022/06/27 03:22:56;;;;;;;7.65;5.43;;;15.50;99.90;;;;;;5077553;28;20457;-90
2022/06/27 03:25:46;;;;;;;8.05;4.70;;;15.50;99.90;;;;;;5085193;28;20363;-87
2022/06/27 03:28:33;;;;;;;7.32;5.32;;;15.50;99.90;;;;;;5071592;28;20049;-89
2022/06/27 03:31:21;;;;;;;12.57;7.22;;;15.50;99.90;;;;;;5061602;28;20055;-89
2022/06/27 03:34:08;;;;;;;9.55;5.75;;;15.60;99.90;;;;;;5058052;28;20087;-91
2022/06/27 03:36:56;;;;;;;15.50;5.35;;;15.60;99.90;;;;;;5070945;28;20121;-90
2022/06/27 03:39:44;;;;;;;7.50;5.68;;;15.60;99.90;;;;;;5074536;28;20063;-89
2022/06/27 03:42:31;;;;;;;12.45;5.40;;;15.50;99.90;;;;;;5053311;28;20053;-89
2022/06/27 03:45:18;;;;;;;16.60;7.05;;;15.60;99.90;;;;;;5075336;28;20044;-89
2022/06/27 03:48:08;;;;;;;8.65;6.10;;;15.50;99.90;;;;;;5085159;28;20083;-90
2022/06/27 03:50:57;;;;;;;8.70;6.70;;;15.70;99.90;;;;;;5074980;28;20136;-89
2022/06/27 03:53:45;;;;;;;13.45;7.72;;;15.70;99.90;;;;;;5092934;28;20084;-87
2022/06/27 03:56:33;;;;;;;14.48;7.28;;;15.60;99.90;;;;;;5082831;28;20465;-89
2022/06/27 03:59:23;;;;;;;11.85;7.47;;;15.60;99.90;;;;;;5084127;28;20071;-91
2022/06/27 04:02:16;;;;;;;9.52;7.00;;;15.60;99.90;;;;;;5067725;28;20161;-91
2022/06/27 04:05:03;;;;;;;11.57;6.50;;;15.70;99.90;;;;;;5074463;28;20040;-88
2022/06/27 04:07:51;;;;;;;11.75;5.82;;;15.70;99.90;;;;;;5059272;28;20055;-87
2022/06/27 04:10:39;;;;;;;14.15;5.57;;;15.60;99.90;;;;;;5058493;28;20111;-89
2022/06/27 04:13:29;;;;;;;10.88;6.00;;;15.60;99.90;;;;;;5070021;28;20137;-88
2022/06/27 04:16:17;;;;;;;9.40;6.75;;;15.60;99.90;;;;;;5073247;28;20128;-88
2022/06/27 04:19:12;;;;;;;8.45;6.47;;;15.60;99.90;;;;;;5073842;28;20040;-90
2022/06/27 04:22:01;;;;;;;11.02;7.55;;;15.70;99.90;;;;;;5058535;28;20157;-87
2022/06/27 04:29:26;;;;;;;10.52;8.13;;;15.70;99.90;;;;;;5071031;28;20318;-87
2022/06/27 04:32:25;;;;;;;11.43;8.13;;;15.90;99.90;;;;;;5061751;28;20070;-86
2022/06/27 04:35:14;;;;;;;11.40;8.20;;;15.90;99.90;;;;;;5058833;28;20052;-86
2022/06/27 04:38:31;;;;;;;13.80;8.38;;;15.90;99.90;;;;;;5062808;28;20369;-88
2022/06/27 04:42:23;;;;;;;12.45;8.52;;;15.90;99.90;;;;;;5057545;28;20049;-86
2022/06/27 04:54:12;;;;;;;11.05;6.95;;;16.00;99.90;;;;;;5071887;28;20024;-86
2022/06/27 05:05:20;;;;;;;5.80;4.55;;;16.20;99.90;;;;;;4999106;28;20068;-87
2022/06/27 05:08:08;;;;;;;7.72;5.18;;;16.30;99.90;;;;;;5003199;28;20105;-90
2022/06/27 05:10:59;;;;;;;7.43;4.57;;;16.50;99.90;;;;;;5017673;28;20068;-87
2022/06/27 05:13:57;;;;;;;5.38;3.55;;;16.60;99.90;;;;;;5021497;28;20046;-91
2022/06/27 05:16:47;;;;;;;5.55;2.50;;;16.70;99.90;;;;;;5008550;28;20565;-87
2022/06/27 05:19:35;;;;;;;3.45;2.13;;;16.70;99.90;;;;;;5019007;28;20069;-91
2022/06/27 05:22:24;;;;;;;2.70;2.00;;;16.80;99.90;;;;;;5026507;28;20049;-89
2022/06/27 05:25:14;;;;;;;2.55;2.13;;;16.90;99.90;;;;;;5011696;28;20479;-90
2022/06/27 05:28:03;;;;;;;5.53;2.03;;;17.00;99.90;;;;;;5014679;28;20053;-89
2022/06/27 05:35:17;;;;;;;7.22;2.28;;;17.20;99.90;;;;;;5043273;28;20044;-90
2022/06/27 05:38:26;;;;;;;7.15;2.33;;;17.30;99.90;;;;;;5020460;28;20423;-89
2022/06/27 05:41:14;;;;;;;4.30;2.22;;;17.30;99.90;;;;;;5052677;28;20469;-90
2022/06/27 05:44:01;;;;;;;2.75;1.98;;;17.40;99.90;;;;;;5051832;28;20045;-87
2022/06/27 05:46:51;;;;;;;2.83;1.80;;;17.50;99.90;;;;;;5056037;28;20134;-89
2022/06/27 05:49:40;;;;;;;4.30;2.45;;;17.60;99.90;;;;;;5056632;28;20056;-90
2022/06/27 05:52:28;;;;;;;2.97;2.40;;;17.60;99.90;;;;;;5072206;28;20049;-89
2022/06/27 05:55:15;;;;;;;3.25;2.10;;;17.60;99.90;;;;;;5059051;28;20091;-87
2022/06/27 05:58:02;;;;;;;3.17;2.50;;;17.50;99.90;;;;;;5053551;28;20095;-90
2022/06/27 06:00:50;;;;;;;4.88;2.90;;;17.50;99.90;;;;;;5049837;28;20041;-89
2022/06/27 06:03:40;;;;;;;8.50;4.40;;;17.40;99.90;;;;;;5057149;28;20052;-89
2022/06/27 06:06:36;;;;;;;7.13;4.95;;;17.40;99.90;;;;;;5062113;28;20131;-87
2022/06/27 06:09:24;;;;;;;8.07;5.00;;;17.20;99.90;;;;;;5076462;28;20061;-90
2022/06/27 06:12:12;;;;;;;6.57;5.15;;;17.20;99.90;;;;;;5073607;28;20084;-88
2022/06/27 06:15:08;;;;;;;8.93;5.28;;;17.30;99.90;;;;;;5053761;28;20033;-87
2022/06/27 06:18:01;;;;;;;6.30;5.18;;;17.40;99.90;;;;;;5065223;28;20037;-87
2022/06/27 06:20:48;;;;;;;9.88;5.45;;;17.50;99.90;;;;;;5075164;28;20059;-87
2022/06/27 06:23:42;;;;;;;7.18;4.90;;;17.70;99.90;;;;;;5073587;28;20068;-88
2022/06/27 06:26:43;;;;;;;7.13;5.50;;;17.90;99.90;;;;;;5055762;28;20056;-91
2022/06/27 06:29:44;;;;;;;5.72;3.88;;;18.10;99.90;;;;;;5055655;28;20029;-90
2022/06/27 06:32:32;;;;;;;8.35;4.30;;;18.30;99.90;;;;;;5055374;28;20076;-87
2022/06/27 06:35:19;;;;;;;7.03;3.83;;;18.70;99.90;;;;;;5072300;28;20101;-91
2022/06/27 06:38:10;;;;;;;3.90;2.83;;;19.00;99.90;;;;;;5057030;28;20029;-87
2022/06/27 06:41:00;;;;;;;6.00;3.03;;;19.20;99.90;;;;;;5059735;28;20053;-86
2022/06/27 06:43:48;;;;;;;3.55;2.22;;;19.40;99.90;;;;;;5063471;28;20085;-88
2022/06/27 06:46:39;;;;;;;3.25;2.40;;;19.70;99.90;;;;;;5073838;28;20033;-90
2022/06/27 06:49:26;;;;;;;4.53;1.88;;;20.10;99.90;;;;;;5061806;28;20045;-89
2022/06/27 06:52:13;;;;;;;4.68;1.83;;;20.50;99.90;;;;;;5067409;28;20067;-88
2022/06/27 06:55:03;;;;;;;4.00;1.98;;;21.00;99.90;;;;;;5068201;28;20141;-90
2022/06/27 06:57:56;;;;;;;3.05;1.05;;;21.30;99.90;;;;;;5050807;28;20045;-89
2022/06/27 07:00:45;;;;;;;3.25;1.60;;;20.90;99.90;;;;;;5053138;28;20056;-91
2022/06/27 07:03:33;;;;;;;3.83;1.45;;;20.80;99.90;;;;;;5052918;28;20452;-91
2022/06/27 07:06:26;;;;;;;4.72;1.50;;;20.80;99.90;;;;;;5050812;28;20056;-89
2022/06/27 07:09:16;;;;;;;2.83;1.25;;;20.80;99.90;;;;;;5064679;28;20051;-91
2022/06/27 07:12:04;;;;;;;1.92;1.30;;;21.30;99.90;;;;;;5051887;28;20049;-89
2022/06/27 07:14:54;;;;;;;3.25;1.13;;;21.80;99.90;;;;;;5041714;28;20045;-89
2022/06/27 07:17:47;;;;;;;3.00;1.27;;;22.10;99.90;;;;;;5055413;28;20037;-88
2022/06/27 07:20:37;;;;;;;4.68;1.52;;;21.90;99.90;;;;;;5064515;28;20048;-87
2022/06/27 07:23:27;;;;;;;1.40;1.10;;;22.10;99.90;;;;;;5066298;28;20040;-88
2022/06/27 07:26:17;;;;;;;1.88;1.10;;;22.60;99.90;;;;;;5059509;28;20429;-92
2022/06/27 07:29:05;;;;;;;1.75;0.98;;;23.00;99.90;;;;;;5045122;28;20369;-92
2022/06/27 07:31:53;;;;;;;4.18;1.10;;;23.30;99.90;;;;;;5046555;28;20037;-89
2022/06/27 07:34:40;;;;;;;2.30;0.98;;;23.40;99.90;;;;;;5057153;28;20297;-89
2022/06/27 07:37:31;;;;;;;2.28;1.20;;;23.10;99.90;;;;;;5067433;28;20045;-91
2022/06/27 07:40:23;;;;;;;2.17;1.00;;;23.30;99.90;;;;;;5045912;28;20133;-88
2022/06/27 07:43:15;;;;;;;4.18;1.30;;;23.10;99.90;;;;;;5056683;28;20036;-89
2022/06/27 07:46:04;;;;;;;2.95;1.00;;;23.10;99.90;;;;;;5053294;28;20045;-91
2022/06/27 07:48:52;;;;;;;1.63;1.00;;;22.90;99.90;;;;;;5038963;28;20415;-88
2022/06/27 07:51:48;;;;;;;1.33;0.90;;;22.70;99.90;;;;;;5044410;28;20148;-89
2022/06/27 07:54:40;;;;;;;2.83;1.17;;;23.00;99.90;;;;;;5057258;28;20041;-90
2022/06/27 07:57:27;;;;;;;2.38;1.02;;;23.80;99.90;;;;;;5056375;28;20276;-90
2022/06/27 08:00:15;;;;;;;2.78;1.00;;;24.10;99.90;;;;;;5060122;28;20072;-88
2022/06/27 08:03:48;;;;;;;4.00;1.08;;;24.90;99.90;;;;;;5043027;28;20071;-91
2022/06/27 08:06:25;;;;;;;1.63;1.00;;;25.20;99.90;;;;;;5057129;28;20040;-89
2022/06/27 08:09:12;;;;;;;3.55;1.05;;;24.20;99.90;;;;;;5058074;28;20157;-88
2022/06/27 08:12:01;;;;;;;3.85;1.10;;;24.00;99.90;;;;;;5059348;28;20051;-90
2022/06/27 08:15:05;;;;;;;1.70;1.13;;;24.20;99.90;;;;;;5046862;28;20049;-91
2022/06/27 08:17:54;;;;;;;4.07;1.30;;;24.10;99.90;;;;;;5061881;28;20419;-89
2022/06/27 08:20:42;;;;;;;4.43;1.10;;;23.90;99.90;;;;;;5047555;28;20095;-91
2022/06/27 08:23:37;;;;;;;2.08;1.02;;;24.40;99.90;;;;;;5039873;28;20091;-90
2022/06/27 08:26:26;;;;;;;3.58;0.90;;;24.60;99.90;;;;;;5061830;28;20044;-91
2022/06/27 08:29:15;;;;;;;1.33;0.82;;;24.40;99.90;;;;;;5037586;28;20330;-92
2022/06/27 08:32:03;;;;;;;4.22;0.80;;;23.80;99.90;;;;;;5068593;28;20049;-92
2022/06/27 08:34:58;;;;;;;1.10;0.47;;;23.50;99.90;;;;;;5062035;28;20049;-91
2022/06/27 08:39:02;;;;;;;1.70;0.68;;;23.20;99.90;;;;;;4965068;28;20050;-91
2022/06/27 08:46:17;;;;;;;2.92;1.10;;;23.00;99.90;;;;;;4912994;29;20048;-91
2022/06/27 08:49:27;;;;;;;2.47;1.00;;;22.80;99.90;;;;;;4925398;29;20201;-91
2022/06/27 08:52:15;;;;;;;1.13;0.65;;;22.60;99.90;;;;;;4914076;29;20048;-90
2022/06/27 08:55:08;;;;;;;1.45;0.65;;;22.70;99.90;;;;;;4924263;29;20044;-89
2022/06/27 08:58:25;;;;;;;1.48;0.60;;;22.60;99.90;;;;;;4953774;29;20237;-91
2022/06/27 09:01:22;;;;;;;3.08;1.17;;;22.40;99.90;;;;;;4968542;28;20060;-91
2022/06/27 09:04:09;;;;;;;2.78;0.80;;;22.60;99.90;;;;;;5061849;28;20442;-87
2022/06/27 09:07:00;;;;;;;1.25;1.00;;;22.90;99.90;;;;;;5061734;28;20204;-89
2022/06/27 09:09:47;;;;;;;2.95;0.70;;;23.10;99.90;;;;;;5059595;28;20037;-89
2022/06/27 09:12:53;;;;;;;3.38;0.90;;;23.10;99.90;;;;;;5050793;28;20125;-90
2022/06/27 09:15:46;;;;;;;4.47;1.08;;;22.90;99.90;;;;;;5052977;28;20049;-90
2022/06/27 09:18:36;;;;;;;1.80;0.80;;;22.50;99.90;;;;;;5055259;28;20056;-91
2022/06/27 09:21:27;;;;;;;1.42;0.90;;;22.30;99.90;;;;;;5060274;28;20044;-89
2022/06/27 09:24:17;;;;;;;2.75;0.90;;;22.20;99.90;;;;;;5048437;28;20049;-91
2022/06/27 09:27:05;;;;;;;2.45;1.10;;;22.30;99.90;;;;;;5036902;28;20116;-90
2022/06/27 09:29:53;;;;;;;2.67;0.90;;;22.20;99.90;;;;;;5052064;28;20052;-90
2022/06/27 09:32:46;;;;;;;3.35;0.80;;;22.50;99.90;;;;;;5056854;28;20055;-91
2022/06/27 09:35:36;;;;;;;1.05;0.73;;;22.90;99.90;;;;;;5049097;28;20067;-92
2022/06/27 09:38:25;;;;;;;1.77;0.90;;;22.90;99.90;;;;;;5056364;28;20142;-92
2022/06/27 09:41:14;;;;;;;1.58;1.02;;;22.70;99.90;;;;;;5060048;28;20048;-91
2022/06/27 09:44:10;;;;;;;1.42;0.93;;;22.30;99.90;;;;;;5045959;28;20044;-90
2022/06/27 09:47:03;;;;;;;1.85;1.05;;;22.00;99.90;;;;;;5058113;28;20045;-88
2022/06/27 09:49:56;;;;;;;2.28;0.90;;;21.70;99.90;;;;;;5050506;28;20397;-90
2022/06/27 09:52:46;;;;;;;1.33;0.77;;;21.60;99.90;;;;;;5041591;28;20072;-89
2022/06/27 09:55:36;;;;;;;6.32;1.45;;;21.50;99.90;;;;;;5056559;28;20041;-88
2022/06/27 09:58:27;;;;;;;1.73;1.00;;;21.50;99.90;;;;;;5051984;28;20041;-87
2022/06/27 10:01:37;;;;;;;3.03;1.10;;;21.50;99.90;;;;;;5060014;28;20091;-91
2022/06/27 10:04:29;;;;;;;2.45;1.23;;;21.40;99.90;;;;;;5058714;28;20195;-90
2022/06/27 10:07:22;;;;;;;1.42;0.90;;;21.50;99.90;;;;;;5055777;28;20091;-91
2022/06/27 10:10:09;;;;;;;5.30;1.55;;;21.50;99.90;;;;;;5059367;28;20108;-94
2022/06/27 10:12:59;;;;;;;6.82;1.05;;;21.70;99.90;;;;;;5059506;28;20044;-91
2022/06/27 10:15:53;;;;;;;1.03;0.90;;;21.70;99.90;;;;;;5038453;28;20178;-91
2022/06/27 10:19:03;;;;;;;2.20;0.97;;;21.70;99.90;;;;;;5051248;28;20042;-90
2022/06/27 10:22:02;;;;;;;4.82;0.93;;;21.60;99.90;;;;;;5045116;28;20137;-90
2022/06/27 10:24:49;;;;;;;7.30;1.20;;;21.50;99.90;;;;;;5051892;28;20052;-88
2022/06/27 10:27:39;;;;;;;3.47;1.17;;;21.50;99.90;;;;;;5044491;28;20041;-90
2022/06/27 10:30:45;;;;;;;1.60;0.98;;;21.40;99.90;;;;;;5045356;28;20119;-88
2022/06/27 10:33:39;;;;;;;2.97;1.08;;;21.50;99.90;;;;;;5051501;28;20374;-88
2022/06/27 10:36:27;;;;;;;1.85;0.98;;;21.60;99.90;;;;;;5056447;28;20430;-91
2022/06/27 10:39:23;;;;;;;4.63;1.20;;;21.60;99.90;;;;;;5053247;28;20053;-90
2022/06/27 10:42:48;;;;;;;2.55;0.70;;;21.60;99.90;;;;;;5053051;28;20482;-92
2022/06/27 10:45:35;;;;;;;2.60;1.20;;;21.60;99.90;;;;;;5055294;28;20091;-90
2022/06/27 10:48:56;;;;;;;2.85;1.13;;;21.60;99.90;;;;;;5055346;28;20041;-89
2022/06/27 10:51:43;;;;;;;1.55;1.02;;;21.70;99.90;;;;;;5026918;28;20056;-91
2022/06/27 10:54:50;;;;;;;4.88;1.00;;;21.90;99.90;;;;;;5041919;28;20059;-91
2022/06/27 10:58:18;;;;;;;1.52;1.08;;;22.30;99.90;;;;;;5050874;28;20122;-89
2022/06/27 11:01:18;;;;;;;2.88;1.30;;;22.80;99.90;;;;;;5052840;28;20040;-91
2022/06/27 11:04:38;;;;;;;1.60;1.10;;;22.50;99.90;;;;;;5055154;28;20048;-86
2022/06/27 11:07:25;;;;;;;1.80;0.90;;;22.60;99.90;;;;;;5061796;28;20068;-89
2022/06/27 11:10:12;;;;;;;2.95;1.33;;;22.70;99.90;;;;;;5065886;28;20087;-91
2022/06/27 11:13:00;;;;;;;3.28;1.00;;;22.80;99.90;;;;;;5049464;28;20049;-90
2022/06/27 11:15:51;;;;;;;1.88;1.00;;;23.00;99.90;;;;;;5062093;28;20504;-89
2022/06/27 11:18:46;;;;;;;3.55;1.30;;;22.90;99.90;;;;;;5045480;28;20450;-92
2022/06/27 11:21:38;;;;;;;1.60;1.13;;;22.80;99.90;;;;;;5045015;28;20064;-91
2022/06/27 11:24:26;;;;;;;2.23;0.93;;;22.60;99.90;;;;;;5055810;28;20040;-89
2022/06/27 11:27:17;;;;;;;3.10;1.17;;;22.30;99.90;;;;;;5049770;28;20040;-89
2022/06/27 11:33:18;;;;;;;1.67;1.20;;;22.00;99.90;;;;;;5053456;28;20040;-88
2022/06/27 11:36:10;;;;;;;1.42;0.98;;;21.90;99.90;;;;;;5055271;28;20059;-88
2022/06/27 11:39:03;;;;;;;4.80;1.38;;;21.70;99.90;;;;;;5055946;28;20396;-89
2022/06/27 11:42:03;;;;;;;1.52;1.10;;;21.60;99.90;;;;;;5057051;28;20045;-93
2022/06/27 11:45:05;;;;;;;1.83;1.20;;;21.50;99.90;;;;;;5053927;28;20048;-89
2022/06/27 11:47:52;;;;;;;1.25;1.15;;;21.50;99.90;;;;;;5052944;28;20048;-88
2022/06/27 11:50:40;;;;;;;4.10;1.20;;;21.80;99.90;;;;;;5041590;28;20120;-89
2022/06/27 11:53:30;;;;;;;2.28;1.42;;;22.00;99.90;;;;;;5055429;28;20530;-90
2022/06/27 11:56:25;;;;;;;2.78;1.05;;;22.00;99.90;;;;;;5041613;28;20041;-90
2022/06/27 11:59:14;;;;;;;2.10;1.30;;;22.00;99.90;;;;;;5053954;28;20051;-89
2022/06/27 12:02:03;;;;;;;2.67;1.52;;;21.90;99.90;;;;;;5051050;28;20080;-91
2022/06/27 12:05:07;;;;;;;1.67;1.30;;;21.80;99.90;;;;;;5049060;28;20060;-92
2022/06/27 12:08:03;;;;;;;1.30;1.15;;;21.60;99.90;;;;;;5038438;28;20041;-91
2022/06/27 12:14:00;;;;;;;2.50;1.38;;;21.20;99.90;;;;;;5049324;28;20363;-91
2022/06/27 12:16:52;;;;;;;3.90;1.40;;;21.10;99.90;;;;;;5054877;28;20046;-90
2022/06/27 12:20:09;;;;;;;1.50;1.40;;;20.90;99.90;;;;;;5056075;28;20120;-88
2022/06/27 12:22:56;;;;;;;1.67;1.20;;;20.90;99.90;;;;;;5052255;28;20171;-91
2022/06/27 12:25:47;;;;;;;2.30;1.27;;;20.80;99.90;;;;;;5050167;28;20465;-91
2022/06/27 12:28:39;;;;;;;1.40;1.30;;;20.70;99.90;;;;;;5048182;28;20045;-90
2022/06/27 12:31:55;;;;;;;3.90;1.40;;;20.70;99.90;;;;;;5037810;28;20065;-91
2022/06/27 12:34:46;;;;;;;4.88;1.40;;;20.60;99.90;;;;;;5028360;28;20386;-92
2022/06/27 12:37:35;;;;;;;2.83;1.38;;;20.60;99.90;;;;;;5052892;28;20029;-91
2022/06/27 12:40:24;;;;;;;2.78;1.30;;;20.60;99.90;;;;;;5051722;28;20123;-90
2022/06/27 12:43:24;;;;;;;1.23;1.00;;;20.70;99.90;;;;;;5052726;28;20044;-91
2022/06/27 12:46:18;;;;;;;2.00;1.23;;;20.80;99.90;;;;;;5054039;28;20527;-91
2022/06/27 12:49:10;;;;;;;5.90;1.60;;;20.80;99.90;;;;;;5042701;28;20094;-89
2022/06/27 12:51:57;;;;;;;1.35;1.25;;;20.90;99.90;;;;;;5046952;28;20107;-91
2022/06/27 12:54:48;;;;;;;3.50;1.45;;;21.00;99.90;;;;;;5056377;28;20132;-91
2022/06/27 12:57:43;;;;;;;1.30;1.20;;;21.40;99.90;;;;;;5038063;28;20148;-92
2022/06/27 13:00:33;;;;;;;1.40;1.30;;;22.10;99.90;;;;;;5052937;28;20060;-89
2022/06/27 13:03:21;;;;;;;0.93;0.88;;;22.60;99.90;;;;;;5050260;28;20040;-89
2022/06/27 13:06:09;;;;;;;1.00;1.00;;;22.80;99.90;;;;;;5049026;28;20094;-88
2022/06/27 13:08:59;;;;;;;1.55;1.15;;;22.70;99.90;;;;;;5054067;28;20055;-86
2022/06/27 13:11:47;;;;;;;1.10;1.00;;;22.40;99.90;;;;;;5037959;28;20056;-91
2022/06/27 13:14:37;;;;;;;3.10;1.10;;;22.30;99.90;;;;;;5052464;28;20037;-90
2022/06/27 13:17:28;;;;;;;1.60;1.38;;;22.20;99.90;;;;;;5058480;28;20072;-90
2022/06/27 13:20:15;;;;;;;1.35;1.10;;;22.20;99.90;;;;;;5046035;28;20052;-88
2022/06/27 13:23:05;;;;;;;3.10;1.00;;;22.40;99.90;;;;;;5044462;28;20159;-89
2022/06/27 13:25:58;;;;;;;1.73;1.20;;;22.60;99.90;;;;;;5042976;28;20045;-89
2022/06/27 13:28:46;;;;;;;2.25;1.10;;;23.10;99.90;;;;;;5056315;28;20105;-88
2022/06/27 13:31:33;;;;;;;3.25;1.30;;;23.10;99.90;;;;;;5072125;28;20175;-90
2022/06/27 13:34:21;;;;;;;1.70;0.90;;;23.40;99.90;;;;;;5066324;28;20350;-88
2022/06/27 13:37:30;;;;;;;1.17;1.02;;;23.80;99.90;;;;;;5063092;28;20068;-85
2022/06/27 13:40:17;;;;;;;1.52;0.98;;;23.70;99.90;;;;;;5040761;28;20060;-87
2022/06/27 13:43:05;;;;;;;1.42;1.05;;;23.40;99.90;;;;;;5074642;28;20033;-83
2022/06/27 14:45:45;;;;;;;3.75;1.20;;;21.60;99.90;;;;;;4882249;29;20044;-90
2022/06/27 14:57:04;;;;;;;7.72;1.30;;;20.40;99.90;;;;;;4875817;29;20537;-90
2022/06/27 15:00:31;;;;;;;4.05;1.38;;;20.80;99.90;;;;;;4825110;29;20055;-90
2022/06/27 15:37:32;;;;;;;2.83;2.08;;;19.40;99.90;;;;;;5086091;28;20420;-92
2022/06/27 15:40:19;;;;;;;2.22;2.03;;;19.30;99.90;;;;;;5073331;28;20120;-92
2022/06/27 15:43:27;;;;;;;4.13;2.20;;;19.20;99.90;;;;;;5073527;28;20048;-88
2022/06/27 15:46:51;;;;;;;4.63;2.35;;;19.00;99.90;;;;;;5071265;28;20052;-91
2022/06/27 15:49:39;;;;;;;2.22;2.00;;;19.00;99.90;;;;;;5046815;28;20052;-87
2022/06/27 15:52:27;;;;;;;2.13;1.95;;;18.90;99.90;;;;;;5067480;28;20072;-90
2022/06/27 15:55:16;;;;;;;3.97;2.13;;;19.00;99.90;;;;;;5080451;28;20509;-90
2022/06/27 15:58:04;;;;;;;2.50;2.10;;;19.00;99.90;;;;;;5073837;28;20437;-89
2022/06/27 16:01:05;;;;;;;5.22;3.22;;;19.20;99.90;;;;;;5057693;28;20255;-88
2022/06/27 16:04:39;;;;;;;2.60;2.25;;;19.50;99.90;;;;;;5072148;28;20170;-90
2022/06/27 16:15:48;;;;;;;2.95;2.40;;;19.20;99.90;;;;;;5074095;28;20671;-89
2022/06/27 16:19:32;;;;;;;3.58;2.53;;;19.00;99.90;;;;;;4991829;28;20360;-89
2022/06/27 16:22:44;;;;;;;4.50;2.90;;;19.00;99.90;;;;;;4991319;28;20310;-88
2022/06/27 16:25:34;;;;;;;7.40;3.45;;;19.00;99.90;;;;;;4989483;28;20046;-89
2022/06/27 16:28:28;;;;;;;4.95;3.50;;;19.10;99.90;;;;;;4977549;28;20054;-89
2022/06/27 16:43:47;;;;;;;3.35;3.05;;;18.70;99.90;;;;;;5092274;28;20079;-87
2022/06/27 16:46:35;;;;;;;4.60;3.60;;;19.00;99.90;;;;;;5072717;28;20119;-85
2022/06/27 16:49:48;;;;;;;4.07;3.67;;;19.00;99.90;;;;;;5085804;28;20127;-90
2022/06/27 16:52:36;;;;;;;5.43;4.25;;;18.70;99.90;;;;;;5058350;28;20044;-88
2022/06/27 16:55:31;;;;;;;5.68;4.35;;;18.50;99.90;;;;;;5064720;28;20457;-86
2022/06/27 16:58:18;;;;;;;6.72;4.88;;;18.30;99.90;;;;;;5057538;28;20036;-87
2022/06/27 17:01:14;;;;;;;6.65;5.00;;;18.20;99.90;;;;;;5071643;28;20048;-88
2022/06/27 17:04:04;;;;;;;4.95;4.38;;;18.10;99.90;;;;;;5080908;28;20149;-85
2022/06/27 17:06:54;;;;;;;5.22;4.65;;;18.00;99.90;;;;;;5072575;28;20084;-86
2022/06/27 17:09:48;;;;;;;5.38;4.82;;;18.10;99.90;;;;;;5078033;28;20123;-86
2022/06/27 17:12:36;;;;;;;6.30;3.92;;;18.20;99.90;;;;;;5065981;28;20315;-86
2022/06/27 17:15:27;;;;;;;8.20;4.75;;;18.30;99.90;;;;;;5072207;28;20139;-88
2022/06/27 17:18:19;;;;;;;7.18;4.47;;;18.30;99.90;;;;;;5074200;28;20123;-85
2022/06/27 17:21:10;;;;;;;8.75;5.22;;;18.20;99.90;;;;;;5064245;28;20056;-87
2022/06/27 17:23:58;;;;;;;9.48;5.15;;;18.20;99.90;;;;;;5056010;28;20202;-91
2022/06/27 17:26:50;;;;;;;8.05;5.60;;;18.10;99.90;;;;;;5071136;28;20120;-89
2022/06/27 17:29:37;;;;;;;6.47;5.20;;;18.10;99.90;;;;;;5067492;28;20055;-90
2022/06/27 17:32:25;;;;;;;6.47;5.72;;;18.10;99.90;;;;;;5071089;28;20037;-89
2022/06/27 17:35:18;;;;;;;8.43;5.22;;;18.30;99.90;;;;;;5071330;28;20158;-89
2022/06/27 17:38:06;;;;;;;5.72;4.53;;;18.40;99.90;;;;;;5062557;28;20351;-90